Time;durP1;ratioP1;P1;durP2;ratioP2;P2;SDS_P1;SDS_P2;PMS_P1;PMS_P2;Temp;Humidity;BMP_temperature;BMP_pressure;BME280_temperature;BME280_humidity;BME280_pressure;Samples;Min_cycle;Max_cycle;Signal;HPM_P1;HPM_P2
2021/05/14 00:02:19;;;;;;;1.20;0.30;;;23.80;43.20;;;;;;5031218;28;20809;-71
2021/05/14 00:04:45;;;;;;;0.73;0.30;;;23.80;43.00;;;;;;5031320;28;20382;-70
2021/05/14 00:07:10;;;;;;;1.23;0.30;;;23.80;43.00;;;;;;5031278;28;20398;-70
2021/05/14 00:09:36;;;;;;;1.10;0.30;;;23.70;42.90;;;;;;5013456;28;20399;-71
2021/05/14 00:12:02;;;;;;;1.23;0.57;;;23.70;42.80;;;;;;5030579;28;20387;-60
2021/05/14 00:14:28;;;;;;;1.52;0.47;;;23.70;42.80;;;;;;5013499;28;20415;-60
2021/05/14 00:16:54;;;;;;;0.68;0.30;;;23.70;42.70;;;;;;5031204;28;20399;-71
2021/05/14 00:19:20;;;;;;;1.13;0.30;;;23.70;42.80;;;;;;5031439;28;20391;-60
2021/05/14 00:21:46;;;;;;;0.93;0.40;;;23.70;42.80;;;;;;5035080;28;20423;-60
2021/05/14 00:24:12;;;;;;;0.90;0.30;;;23.70;42.80;;;;;;5034503;28;20410;-60
2021/05/14 00:26:38;;;;;;;0.70;0.30;;;23.70;42.70;;;;;;5035027;28;20970;-71
2021/05/14 00:29:04;;;;;;;0.93;0.30;;;23.70;42.70;;;;;;5034875;28;20387;-60
2021/05/14 00:31:29;;;;;;;0.73;0.30;;;23.60;42.50;;;;;;5034692;28;20403;-70
2021/05/14 00:33:55;;;;;;;0.52;0.20;;;23.60;42.50;;;;;;5034553;28;20933;-71
2021/05/14 00:36:21;;;;;;;1.10;0.27;;;23.60;42.50;;;;;;5034459;28;20522;-70
2021/05/14 00:38:46;;;;;;;1.27;0.50;;;23.60;42.30;;;;;;5016929;28;20394;-71
2021/05/14 00:41:12;;;;;;;2.60;0.47;;;23.60;42.30;;;;;;5034542;28;20415;-70
2021/05/14 00:43:38;;;;;;;0.70;0.30;;;23.50;42.20;;;;;;5034638;28;20391;-71
2021/05/14 00:46:05;;;;;;;0.60;0.30;;;23.60;42.30;;;;;;5034172;28;20892;-71
2021/05/14 00:48:31;;;;;;;0.73;0.40;;;23.60;42.30;;;;;;5034600;28;20474;-71
2021/05/14 00:50:56;;;;;;;0.55;0.20;;;23.60;42.20;;;;;;5034751;28;20407;-71
2021/05/14 00:53:23;;;;;;;0.50;0.20;;;23.50;42.10;;;;;;5034321;28;20383;-71
2021/05/14 00:55:49;;;;;;;0.40;0.15;;;23.50;42.70;;;;;;5034257;28;20445;-71
2021/05/14 00:58:14;;;;;;;0.82;0.20;;;23.50;42.10;;;;;;5033852;28;20462;-67
2021/05/14 01:00:40;;;;;;;0.90;0.20;;;23.50;41.90;;;;;;5016453;28;20766;-70
2021/05/14 01:03:06;;;;;;;0.77;0.30;;;23.50;41.90;;;;;;5034237;28;20758;-71
2021/05/14 01:05:31;;;;;;;0.70;0.30;;;23.40;41.90;;;;;;5034244;28;20378;-71
2021/05/14 01:07:58;;;;;;;0.90;0.28;;;23.40;41.90;;;;;;5033816;28;20399;-71
2021/05/14 01:10:24;;;;;;;0.60;0.30;;;23.40;41.90;;;;;;5033861;28;20871;-71
2021/05/14 01:12:50;;;;;;;0.77;0.30;;;23.40;41.90;;;;;;5034051;28;20425;-71
2021/05/14 01:15:16;;;;;;;0.63;0.30;;;23.40;41.80;;;;;;5034110;28;20386;-71
2021/05/14 01:17:42;;;;;;;0.43;0.20;;;23.40;41.70;;;;;;5034040;28;20383;-71
2021/05/14 01:20:08;;;;;;;0.60;0.30;;;23.40;41.80;;;;;;5033454;28;20790;-71
2021/05/14 01:22:35;;;;;;;0.60;0.40;;;23.40;41.70;;;;;;5033830;28;20399;-71
2021/05/14 01:25:00;;;;;;;0.80;0.30;;;23.40;41.60;;;;;;5033451;28;20881;-71
2021/05/14 01:27:26;;;;;;;0.70;0.35;;;23.30;41.60;;;;;;5033756;28;20395;-71
2021/05/14 01:29:51;;;;;;;0.70;0.30;;;23.30;41.60;;;;;;5033841;28;20384;-70
2021/05/14 01:32:17;;;;;;;0.80;0.20;;;23.30;41.60;;;;;;5031959;28;20387;-71
2021/05/14 01:34:44;;;;;;;1.10;0.30;;;23.30;41.50;;;;;;5033772;28;20387;-70
2021/05/14 01:37:09;;;;;;;0.40;0.20;;;23.30;41.50;;;;;;5033742;28;20557;-71
2021/05/14 01:39:35;;;;;;;0.70;0.30;;;23.30;41.50;;;;;;5033583;28;20907;-71
2021/05/14 01:42:03;;;;;;;0.70;0.30;;;23.30;41.50;;;;;;5033323;28;20423;-70
2021/05/14 01:44:29;;;;;;;0.43;0.20;;;23.20;41.30;;;;;;5033598;28;20391;-70
2021/05/14 01:46:55;;;;;;;0.38;0.20;;;23.20;41.30;;;;;;5033537;28;20445;-70
2021/05/14 01:49:20;;;;;;;0.50;0.30;;;23.20;41.30;;;;;;5033336;28;20395;-67
2021/05/14 01:51:47;;;;;;;0.63;0.30;;;23.20;41.30;;;;;;5033504;28;20894;-71
2021/05/14 01:54:13;;;;;;;0.60;0.20;;;23.20;41.30;;;;;;5032887;28;20379;-69
2021/05/14 01:56:38;;;;;;;0.60;0.30;;;23.20;41.30;;;;;;5033316;28;20732;-70
2021/05/14 01:59:05;;;;;;;0.60;0.20;;;23.20;41.20;;;;;;5033279;28;20386;-70
2021/05/14 02:01:31;;;;;;;0.55;0.25;;;23.20;41.30;;;;;;5015376;28;20422;-71
2021/05/14 02:03:56;;;;;;;0.50;0.22;;;23.20;41.20;;;;;;5023411;28;20396;-69
2021/05/14 02:06:22;;;;;;;0.30;0.20;;;23.10;41.10;;;;;;5013070;28;20472;-70
2021/05/14 02:08:50;;;;;;;0.40;0.20;;;23.10;41.20;;;;;;5013282;28;20385;-70
2021/05/14 02:11:16;;;;;;;0.40;0.20;;;23.10;41.10;;;;;;5013092;28;20405;-68
2021/05/14 02:13:41;;;;;;;0.47;0.30;;;23.10;41.10;;;;;;5012912;28;20523;-67
2021/05/14 02:16:08;;;;;;;0.47;0.30;;;23.10;41.10;;;;;;5012741;28;20392;-69
2021/05/14 02:18:35;;;;;;;0.57;0.25;;;23.10;41.20;;;;;;5013128;28;20388;-68
2021/05/14 02:21:01;;;;;;;0.50;0.27;;;23.10;41.10;;;;;;5013083;28;20483;-70
2021/05/14 02:23:27;;;;;;;0.52;0.20;;;23.10;41.10;;;;;;5012955;28;20380;-70
2021/05/14 02:25:53;;;;;;;0.68;0.25;;;23.10;41.10;;;;;;5013038;28;20403;-70
2021/05/14 02:28:19;;;;;;;0.43;0.20;;;23.10;41.10;;;;;;5012285;28;20384;-70
2021/05/14 02:30:45;;;;;;;1.15;0.50;;;23.00;41.10;;;;;;5012875;28;20508;-70
2021/05/14 02:33:11;;;;;;;0.50;0.20;;;23.00;41.00;;;;;;5012879;28;20947;-69
2021/05/14 02:35:36;;;;;;;0.47;0.30;;;23.00;41.00;;;;;;5012670;28;20389;-70
2021/05/14 02:38:03;;;;;;;0.90;0.30;;;23.00;41.00;;;;;;5012556;28;20899;-70
2021/05/14 02:40:29;;;;;;;0.40;0.20;;;23.00;41.00;;;;;;5012545;28;20888;-71
2021/05/14 02:42:56;;;;;;;0.40;0.20;;;23.00;41.00;;;;;;5012310;28;20400;-71
2021/05/14 02:45:22;;;;;;;0.60;0.30;;;23.00;41.00;;;;;;5012676;28;20385;-70
2021/05/14 02:47:48;;;;;;;0.47;0.20;;;23.00;40.90;;;;;;5012647;28;20397;-71
2021/05/14 02:50:14;;;;;;;0.50;0.30;;;23.00;41.00;;;;;;5012126;28;20395;-71
2021/05/14 02:52:40;;;;;;;0.70;0.38;;;23.00;41.00;;;;;;5012575;28;20768;-71
2021/05/14 02:55:08;;;;;;;0.50;0.30;;;23.00;40.90;;;;;;5012564;28;20392;-71
2021/05/14 02:57:34;;;;;;;0.50;0.20;;;22.90;40.90;;;;;;5012378;28;20412;-70
2021/05/14 03:00:00;;;;;;;0.32;0.20;;;22.90;40.90;;;;;;5012132;28;20390;-65
2021/05/14 03:02:26;;;;;;;0.57;0.30;;;22.90;40.90;;;;;;5012146;28;20416;-71
2021/05/14 03:04:51;;;;;;;0.38;0.30;;;22.90;41.00;;;;;;5012387;28;20474;-70
2021/05/14 03:07:17;;;;;;;0.60;0.30;;;22.90;41.00;;;;;;5012230;28;20459;-70
2021/05/14 03:09:43;;;;;;;0.40;0.20;;;22.90;40.90;;;;;;5012295;28;20400;-70
2021/05/14 03:12:09;;;;;;;0.77;0.40;;;22.90;41.00;;;;;;5011601;28;20420;-66
2021/05/14 03:14:34;;;;;;;0.70;0.20;;;22.90;41.00;;;;;;5012119;28;20385;-71
2021/05/14 03:17:00;;;;;;;0.60;0.20;;;22.90;41.00;;;;;;5012115;28;20459;-71
2021/05/14 03:19:26;;;;;;;0.52;0.20;;;22.90;41.00;;;;;;5012116;28;20397;-71
2021/05/14 03:21:52;;;;;;;0.60;0.30;;;22.80;40.90;;;;;;5012105;28;20507;-70
2021/05/14 03:24:18;;;;;;;0.40;0.28;;;22.80;40.90;;;;;;5011484;28;20389;-70
2021/05/14 03:26:47;;;;;;;0.70;0.30;;;22.80;41.00;;;;;;5012001;28;20448;-68
2021/05/14 03:29:13;;;;;;;0.40;0.20;;;22.80;40.90;;;;;;5012134;28;20432;-67
2021/05/14 03:31:39;;;;;;;1.00;0.30;;;22.80;40.90;;;;;;5011968;28;20393;-70
2021/05/14 03:34:04;;;;;;;0.53;0.27;;;22.80;41.00;;;;;;5011763;28;20905;-71
2021/05/14 03:36:30;;;;;;;0.60;0.30;;;22.80;40.90;;;;;;5011577;28;20405;-70
2021/05/14 03:38:57;;;;;;;0.40;0.20;;;22.80;41.00;;;;;;5011878;28;20387;-70
2021/05/14 03:43:55;;;;;;;0.77;0.30;;;22.80;41.00;;;;;;5012047;28;20475;-71
2021/05/14 03:46:21;;;;;;;0.40;0.30;;;22.70;40.90;;;;;;5011301;28;20464;-70
2021/05/14 03:48:46;;;;;;;0.40;0.30;;;22.80;41.00;;;;;;5011773;28;20727;-71
2021/05/14 03:51:12;;;;;;;0.57;0.30;;;22.80;41.00;;;;;;5011265;28;20404;-69
2021/05/14 03:53:38;;;;;;;0.50;0.40;;;22.70;40.90;;;;;;5011702;28;20463;-70
2021/05/14 03:56:04;;;;;;;0.60;0.30;;;22.70;40.90;;;;;;4997033;28;20534;-69
2021/05/14 03:58:29;;;;;;;0.50;0.30;;;22.70;40.80;;;;;;5015403;28;20380;-71
2021/05/14 04:00:55;;;;;;;0.45;0.25;;;22.70;40.80;;;;;;5015603;28;20415;-71
2021/05/14 04:03:22;;;;;;;0.60;0.33;;;22.70;40.90;;;;;;5015623;28;20499;-70
2021/05/14 04:05:48;;;;;;;0.50;0.30;;;22.70;40.80;;;;;;5015662;28;20988;-70
2021/05/14 04:08:14;;;;;;;0.68;0.30;;;22.70;40.90;;;;;;5015047;28;20396;-71
2021/05/14 04:16:07;;;;;;;0.30;0.25;;;22.70;40.80;;;;;;5011371;28;20471;-60
2021/05/14 04:18:37;;;;;;;0.50;0.20;;;22.70;40.90;;;;;;5015142;28;20436;-70
2021/05/14 04:21:03;;;;;;;0.60;0.30;;;22.70;40.90;;;;;;5015216;28;20435;-70
2021/05/14 04:23:29;;;;;;;0.50;0.20;;;22.70;40.90;;;;;;5015250;28;20461;-70
2021/05/14 04:25:55;;;;;;;0.50;0.30;;;22.70;40.90;;;;;;5015205;28;20381;-71
2021/05/14 04:28:20;;;;;;;0.47;0.30;;;22.70;41.60;;;;;;5013371;28;20419;-71
2021/05/14 04:30:46;;;;;;;0.60;0.30;;;22.60;40.80;;;;;;5019490;28;20870;-60
2021/05/14 04:33:12;;;;;;;1.00;0.30;;;22.60;40.80;;;;;;5042689;28;20397;-64
2021/05/14 04:35:37;;;;;;;1.05;0.30;;;22.60;41.00;;;;;;5046400;28;20477;-69
2021/05/14 04:38:03;;;;;;;1.23;0.20;;;22.60;40.40;;;;;;5050401;28;20415;-68
2021/05/14 04:40:29;;;;;;;1.10;0.30;;;22.60;40.10;;;;;;5054138;28;20459;-71
2021/05/14 04:43:00;;;;;;;1.07;0.30;;;22.60;40.70;;;;;;5056024;28;20439;-70
2021/05/14 04:45:25;;;;;;;1.20;0.40;;;22.50;40.40;;;;;;5054688;28;20384;-70
2021/05/14 04:47:51;;;;;;;1.50;0.30;;;22.50;40.80;;;;;;5054518;28;20401;-71
2021/05/14 04:50:18;;;;;;;0.98;0.40;;;22.50;41.50;;;;;;5051981;28;20468;-69
2021/05/14 04:52:44;;;;;;;1.20;0.30;;;22.50;41.00;;;;;;5034498;28;20824;-71
2021/05/14 04:55:11;;;;;;;1.10;0.25;;;22.50;41.80;;;;;;5032380;28;20387;-69
2021/05/14 04:57:37;;;;;;;0.88;0.30;;;22.40;41.50;;;;;;5034090;28;20387;-70
2021/05/14 05:00:04;;;;;;;2.00;0.50;;;22.50;41.90;;;;;;5034480;28;20489;-71
2021/05/14 05:02:31;;;;;;;2.90;0.40;;;22.40;41.70;;;;;;5033612;28;20505;-69
2021/05/14 05:04:58;;;;;;;2.20;0.40;;;22.40;41.60;;;;;;5034149;28;20402;-68
2021/05/14 05:07:24;;;;;;;4.23;0.60;;;22.50;41.70;;;;;;5032556;28;20537;-72
2021/05/14 05:09:50;;;;;;;1.83;0.40;;;22.40;42.40;;;;;;5032863;28;20868;-69
2021/05/14 05:12:16;;;;;;;4.67;0.97;;;22.40;42.00;;;;;;5033383;28;20422;-68
2021/05/14 05:14:43;;;;;;;1.98;1.02;;;22.40;42.30;;;;;;5035302;28;20395;-64
2021/05/14 05:17:09;;;;;;;2.10;0.40;;;22.50;42.50;;;;;;5033980;28;20533;-73
2021/05/14 05:19:35;;;;;;;2.63;0.40;;;22.50;42.60;;;;;;5036098;28;20536;-71
2021/05/14 05:22:00;;;;;;;3.13;1.23;;;22.50;43.80;;;;;;5033786;28;20514;-70
2021/05/14 05:24:26;;;;;;;3.20;0.75;;;22.60;44.80;;;;;;5033376;28;20393;-72
2021/05/14 05:26:52;;;;;;;2.87;0.60;;;22.70;44.40;;;;;;5033724;28;20879;-72
2021/05/14 05:29:17;;;;;;;3.08;0.60;;;22.70;43.70;;;;;;5033547;28;20390;-71
2021/05/14 05:31:44;;;;;;;3.10;0.50;;;22.60;43.70;;;;;;5033492;28;20392;-70
2021/05/14 05:34:10;;;;;;;5.67;0.70;;;22.60;43.50;;;;;;5033539;28;20988;-69
2021/05/14 05:36:35;;;;;;;3.72;0.80;;;22.60;43.90;;;;;;5025298;28;20379;-72
2021/05/14 05:39:02;;;;;;;3.88;0.70;;;22.50;43.30;;;;;;5033636;28;20755;-72
2021/05/14 05:41:28;;;;;;;3.05;0.47;;;22.40;42.80;;;;;;5033416;28;20902;-72
2021/05/14 05:43:54;;;;;;;1.48;0.40;;;22.40;43.40;;;;;;5033644;28;20399;-72
2021/05/14 05:46:21;;;;;;;1.92;0.40;;;22.40;43.00;;;;;;5033109;28;20391;-72
2021/05/14 05:48:46;;;;;;;1.60;0.60;;;22.40;43.00;;;;;;5033410;28;20462;-73
2021/05/14 05:51:16;;;;;;;2.42;0.50;;;22.40;43.20;;;;;;5033414;28;20425;-72
2021/05/14 05:53:45;;;;;;;2.10;0.50;;;22.40;43.10;;;;;;5033275;28;20403;-72
2021/05/14 05:56:11;;;;;;;2.20;0.50;;;22.40;42.90;;;;;;5032955;28;20902;-67
2021/05/14 05:58:37;;;;;;;1.63;0.50;;;22.40;43.50;;;;;;5033137;28;20387;-72
2021/05/14 06:01:03;;;;;;;2.22;0.40;;;22.40;43.20;;;;;;5033236;28;20976;-72
2021/05/14 06:03:29;;;;;;;2.20;0.68;;;22.30;43.00;;;;;;5033160;28;20387;-72
2021/05/14 06:05:55;;;;;;;1.80;0.50;;;22.30;43.60;;;;;;5033097;28;20395;-72
2021/05/14 06:08:20;;;;;;;2.03;0.50;;;22.30;43.40;;;;;;5032524;28;20394;-72
2021/05/14 06:10:51;;;;;;;2.10;0.50;;;22.30;42.80;;;;;;5033122;28;20387;-72
2021/05/14 06:13:17;;;;;;;3.92;0.70;;;22.30;42.90;;;;;;5032795;28;20407;-72
2021/05/14 06:15:43;;;;;;;3.35;0.50;;;22.30;42.50;;;;;;5033243;28;20383;-72
2021/05/14 06:18:13;;;;;;;2.20;0.60;;;22.30;42.90;;;;;;5032010;28;20733;-72
2021/05/14 06:20:43;;;;;;;2.47;0.50;;;22.30;43.00;;;;;;5025071;28;20434;-72
2021/05/14 06:23:08;;;;;;;2.75;0.68;;;22.30;42.80;;;;;;5032822;28;20398;-72
2021/05/14 06:25:35;;;;;;;2.93;0.57;;;22.40;43.00;;;;;;5032917;28;20395;-72
2021/05/14 06:28:01;;;;;;;2.85;0.50;;;22.40;43.00;;;;;;5032749;28;20410;-72
2021/05/14 06:30:26;;;;;;;2.58;0.50;;;22.40;42.80;;;;;;5032124;28;20417;-73
2021/05/14 06:32:52;;;;;;;1.53;0.50;;;22.40;42.70;;;;;;5032641;28;20395;-72
2021/05/14 06:35:18;;;;;;;1.90;0.45;;;22.40;42.50;;;;;;5032505;28;20490;-72
2021/05/14 06:37:44;;;;;;;1.73;0.43;;;22.50;42.70;;;;;;5032532;28;20398;-72
2021/05/14 06:40:10;;;;;;;2.25;0.50;;;22.40;42.60;;;;;;5032410;28;20394;-67
2021/05/14 06:42:36;;;;;;;2.10;0.40;;;22.40;42.50;;;;;;5023473;28;20475;-72
2021/05/14 06:45:03;;;;;;;1.55;0.57;;;22.50;42.50;;;;;;5032399;28;20470;-72
2021/05/14 06:47:29;;;;;;;1.65;0.50;;;22.40;42.40;;;;;;5032214;28;20440;-72
2021/05/14 06:49:54;;;;;;;1.60;0.43;;;22.40;42.20;;;;;;5032379;28;20390;-72
2021/05/14 06:52:20;;;;;;;1.33;0.52;;;22.50;42.30;;;;;;5032263;28;20486;-72
2021/05/14 06:54:46;;;;;;;2.30;0.50;;;22.50;42.10;;;;;;5032269;28;20437;-73
2021/05/14 06:57:12;;;;;;;2.45;0.50;;;22.40;41.70;;;;;;5032424;28;20402;-70
2021/05/14 06:59:37;;;;;;;4.10;0.70;;;22.40;42.30;;;;;;5032189;28;20402;-72
2021/05/14 07:02:03;;;;;;;2.58;0.50;;;22.40;42.20;;;;;;5032156;28;20816;-72
2021/05/14 07:04:29;;;;;;;3.83;0.52;;;22.40;42.20;;;;;;5031497;28;20407;-72
2021/05/14 07:06:54;;;;;;;2.97;0.53;;;22.50;42.20;;;;;;5032041;28;20543;-72
2021/05/14 07:09:20;;;;;;;2.97;0.70;;;22.50;42.20;;;;;;5031917;28;20387;-72
2021/05/14 07:11:46;;;;;;;2.00;0.40;;;22.50;42.20;;;;;;5031787;28;20445;-72
2021/05/14 07:14:11;;;;;;;2.25;0.40;;;22.50;42.10;;;;;;5014179;28;20410;-72
2021/05/14 07:16:37;;;;;;;2.30;0.50;;;22.50;41.90;;;;;;5031390;28;20402;-72
2021/05/14 07:19:03;;;;;;;1.60;0.40;;;22.50;42.10;;;;;;5031852;28;20478;-72
2021/05/14 07:21:29;;;;;;;2.10;0.50;;;22.50;42.00;;;;;;5031782;28;20510;-73
2021/05/14 07:23:54;;;;;;;1.95;0.43;;;22.50;42.00;;;;;;5031743;28;20391;-72
2021/05/14 07:26:21;;;;;;;1.60;0.70;;;22.50;42.00;;;;;;5031469;28;20934;-72
2021/05/14 07:28:46;;;;;;;1.60;0.52;;;22.60;41.90;;;;;;5031483;28;20390;-72
2021/05/14 07:31:12;;;;;;;1.30;0.40;;;22.60;41.90;;;;;;5031679;28;20391;-71
2021/05/14 07:33:39;;;;;;;1.17;0.40;;;22.60;41.80;;;;;;5031512;28;20387;-72
2021/05/14 07:36:06;;;;;;;1.90;0.40;;;22.50;41.70;;;;;;5031690;28;20383;-72
2021/05/14 07:38:31;;;;;;;2.15;0.60;;;22.50;41.50;;;;;;5031055;28;20421;-72
2021/05/14 07:40:57;;;;;;;1.50;0.37;;;22.50;41.40;;;;;;5031483;28;20477;-72
2021/05/14 07:43:23;;;;;;;2.65;0.40;;;22.50;41.00;;;;;;5031215;28;20744;-72
2021/05/14 07:45:48;;;;;;;2.17;0.40;;;22.50;41.00;;;;;;5031396;28;20764;-72
2021/05/14 07:48:20;;;;;;;2.72;0.88;;;22.50;40.70;;;;;;5031405;28;20418;-72
2021/05/14 07:50:48;;;;;;;2.63;0.60;;;22.50;40.50;;;;;;5031342;28;20429;-72
2021/05/14 07:53:13;;;;;;;2.85;0.40;;;22.40;40.40;;;;;;5031339;28;20399;-72
2021/05/14 07:55:39;;;;;;;2.77;0.40;;;22.40;40.30;;;;;;5031445;28;20379;-72
2021/05/14 07:58:05;;;;;;;2.20;0.40;;;22.40;40.30;;;;;;5031389;28;20748;-72
2021/05/14 08:00:31;;;;;;;2.28;0.40;;;22.40;40.30;;;;;;5013117;28;20500;-72
2021/05/14 08:02:56;;;;;;;1.73;0.40;;;22.40;40.40;;;;;;5031479;28;20474;-70
2021/05/14 08:05:22;;;;;;;1.60;0.40;;;22.40;40.50;;;;;;5031282;28;20431;-72
2021/05/14 08:08:08;;;;;;;2.17;0.40;;;22.40;40.50;;;;;;5031366;28;20857;-73
2021/05/14 08:10:34;;;;;;;1.85;0.50;;;22.40;40.50;;;;;;5030683;28;20415;-72
2021/05/14 08:12:59;;;;;;;1.23;0.40;;;22.30;40.40;;;;;;5030752;28;20516;-72
2021/05/14 08:15:25;;;;;;;2.28;0.50;;;22.30;40.20;;;;;;5025899;28;20549;-72
2021/05/14 08:17:52;;;;;;;2.60;0.60;;;22.30;40.30;;;;;;5029507;28;20391;-62
2021/05/14 08:20:18;;;;;;;2.53;0.57;;;22.40;40.30;;;;;;5018362;28;20384;-72
2021/05/14 08:22:44;;;;;;;3.53;0.68;;;22.40;40.30;;;;;;5029999;28;20406;-64
2021/05/14 08:25:11;;;;;;;2.67;0.57;;;22.50;40.30;;;;;;5030244;28;20848;-65
2021/05/14 08:27:37;;;;;;;2.53;0.60;;;22.50;40.00;;;;;;5030542;28;20965;-62
2021/05/14 08:30:04;;;;;;;4.00;0.60;;;22.50;40.30;;;;;;5032155;28;20391;-72
2021/05/14 08:32:30;;;;;;;3.85;0.65;;;22.50;40.30;;;;;;5032526;28;20453;-70
2021/05/14 08:34:56;;;;;;;4.07;0.70;;;22.50;40.30;;;;;;5019004;28;20395;-65
2021/05/14 08:37:21;;;;;;;2.65;0.60;;;22.50;40.70;;;;;;5029789;28;20473;-72
2021/05/14 08:39:47;;;;;;;3.73;0.90;;;22.60;40.90;;;;;;5041951;28;20438;-67
2021/05/14 08:42:13;;;;;;;3.28;0.60;;;22.60;41.00;;;;;;5045551;28;20986;-71
2021/05/14 08:44:40;;;;;;;1.77;0.47;;;22.60;40.80;;;;;;5039735;28;20387;-72
2021/05/14 08:47:06;;;;;;;2.58;0.55;;;22.60;40.80;;;;;;5034024;28;20383;-68
2021/05/14 08:49:34;;;;;;;2.83;0.70;;;22.60;40.80;;;;;;5034346;28;20394;-73
2021/05/14 08:52:04;;;;;;;3.08;0.55;;;22.60;40.70;;;;;;5034016;28;20934;-69
2021/05/14 08:54:29;;;;;;;2.15;0.70;;;22.60;40.80;;;;;;5034002;28;20395;-69
2021/05/14 08:56:55;;;;;;;1.87;0.50;;;22.60;40.60;;;;;;5034244;28;20485;-71
2021/05/14 08:59:21;;;;;;;1.40;0.60;;;22.60;40.50;;;;;;5033705;28;20406;-69
2021/05/14 09:01:48;;;;;;;3.50;0.70;;;22.60;40.50;;;;;;5033694;28;20423;-71
2021/05/14 09:04:16;;;;;;;1.95;0.50;;;22.60;40.50;;;;;;5034097;28;20725;-66
2021/05/14 09:06:43;;;;;;;1.70;0.50;;;22.60;40.40;;;;;;5033783;28;20394;-69
2021/05/14 09:09:11;;;;;;;2.20;0.50;;;22.60;40.30;;;;;;5034011;28;20481;-67
2021/05/14 09:11:36;;;;;;;1.70;0.50;;;22.70;41.00;;;;;;5016396;28;20470;-71
2021/05/14 09:14:03;;;;;;;1.85;0.52;;;22.70;40.30;;;;;;5033523;28;20403;-72
2021/05/14 09:16:43;;;;;;;3.10;0.50;;;22.80;40.30;;;;;;5033648;28;20418;-72
2021/05/14 09:19:10;;;;;;;1.20;0.50;;;22.80;40.20;;;;;;5033899;28;20471;-73
2021/05/14 09:21:37;;;;;;;1.48;0.50;;;22.80;40.20;;;;;;5033806;28;20423;-72
2021/05/14 09:24:03;;;;;;;2.25;0.47;;;22.80;40.10;;;;;;5033662;28;20415;-65
2021/05/14 09:26:30;;;;;;;1.25;0.45;;;22.80;40.10;;;;;;5033394;28;20884;-64
2021/05/14 09:28:56;;;;;;;1.10;0.45;;;22.80;40.10;;;;;;5033565;28;20441;-71
2021/05/14 09:31:27;;;;;;;1.20;0.50;;;22.80;40.10;;;;;;5033619;28;20506;-73
2021/05/14 09:33:59;;;;;;;1.33;0.40;;;22.80;40.10;;;;;;5033653;28;20387;-72
2021/05/14 09:36:39;;;;;;;1.33;0.50;;;22.80;39.90;;;;;;5033351;28;20387;-61
2021/05/14 09:39:07;;;;;;;2.00;0.40;;;22.80;40.10;;;;;;5015732;28;20941;-72
2021/05/14 09:41:36;;;;;;;2.47;0.75;;;22.80;40.10;;;;;;5033662;28;20419;-60
2021/05/14 09:44:04;;;;;;;1.88;0.50;;;22.80;40.20;;;;;;5033290;28;20403;-71
2021/05/14 09:46:36;;;;;;;1.57;0.40;;;22.80;40.20;;;;;;5032818;28;20402;-71
2021/05/14 09:49:20;;;;;;;1.27;0.40;;;22.70;39.90;;;;;;5033617;28;20441;-61
2021/05/14 09:51:55;;;;;;;1.73;0.40;;;22.70;40.40;;;;;;5032681;28;20852;-72
2021/05/14 09:54:28;;;;;;;2.00;0.40;;;22.70;40.40;;;;;;5014941;28;20525;-67
2021/05/14 10:00:04;;;;;;;2.70;0.40;;;22.70;40.20;;;;;;5033392;28;20426;-67
2021/05/14 10:02:41;;;;;;;2.10;0.40;;;22.80;40.70;;;;;;5032735;28;20480;-71
2021/05/14 10:05:20;;;;;;;2.55;0.40;;;22.80;40.90;;;;;;5015237;28;20890;-60
2021/05/14 10:07:47;;;;;;;2.15;0.50;;;22.80;40.60;;;;;;5033131;28;20875;-72
2021/05/14 10:10:13;;;;;;;1.70;0.60;;;22.90;40.30;;;;;;5033071;28;20413;-72
2021/05/14 10:12:40;;;;;;;2.70;0.40;;;22.90;40.30;;;;;;5032285;28;20497;-69
2021/05/14 10:15:10;;;;;;;1.10;0.40;;;22.90;40.40;;;;;;5032689;28;20391;-71
2021/05/14 10:17:41;;;;;;;2.15;0.40;;;22.90;40.30;;;;;;5032179;28;20383;-70
2021/05/14 10:20:16;;;;;;;2.22;0.40;;;23.00;40.40;;;;;;5032882;28;20414;-72
2021/05/14 10:22:44;;;;;;;2.97;0.50;;;23.00;40.40;;;;;;5032169;28;20407;-64
2021/05/14 10:25:12;;;;;;;2.13;0.50;;;23.00;40.30;;;;;;5032843;28;20398;-70
2021/05/14 10:27:47;;;;;;;1.83;0.40;;;23.00;40.10;;;;;;5032746;28;20395;-68
2021/05/14 10:30:13;;;;;;;3.13;0.50;;;22.90;40.30;;;;;;5015767;28;20890;-71
2021/05/14 10:32:46;;;;;;;1.08;0.40;;;22.90;39.60;;;;;;5031955;28;20775;-60
2021/05/14 10:35:16;;;;;;;3.17;0.50;;;22.90;40.00;;;;;;5032802;28;20427;-61
2021/05/14 10:37:48;;;;;;;5.35;0.60;;;22.90;40.30;;;;;;5035406;28;20402;-64
2021/05/14 10:40:30;;;;;;;4.32;0.85;;;22.90;41.20;;;;;;5031851;28;20387;-72
2021/05/14 10:42:57;;;;;;;3.50;0.52;;;23.00;41.20;;;;;;5035662;28;20391;-62
2021/05/14 10:45:59;;;;;;;3.70;0.40;;;23.00;40.60;;;;;;5012529;28;20729;-59
2021/05/14 10:48:27;;;;;;;1.77;0.43;;;23.00;41.20;;;;;;5034477;28;21669;-60
2021/05/14 10:50:57;;;;;;;4.93;0.55;;;23.00;40.60;;;;;;5031706;28;20419;-72
2021/05/14 10:53:36;;;;;;;3.72;0.60;;;23.00;41.70;;;;;;5030956;28;20433;-72
2021/05/14 10:56:11;;;;;;;3.20;0.57;;;23.10;41.70;;;;;;5017128;28;20393;-72
2021/05/14 10:58:49;;;;;;;2.80;0.50;;;23.10;41.30;;;;;;5021638;28;20441;-64
2021/05/14 11:01:44;;;;;;;7.00;0.65;;;23.10;40.80;;;;;;5034184;28;20423;-71
2021/05/14 11:04:13;;;;;;;5.03;0.50;;;23.10;42.10;;;;;;5014586;28;20751;-72
2021/05/14 11:06:45;;;;;;;6.57;1.00;;;23.10;41.90;;;;;;5013773;28;20406;-72
2021/05/14 11:09:12;;;;;;;2.97;0.50;;;23.20;42.50;;;;;;5014293;28;20442;-68
2021/05/14 11:12:05;;;;;;;5.85;0.50;;;23.20;42.50;;;;;;5032529;28;20398;-72
2021/05/14 11:14:43;;;;;;;9.73;1.30;;;23.20;42.00;;;;;;5031567;28;20402;-72
2021/05/14 11:17:11;;;;;;;5.00;0.57;;;23.20;42.30;;;;;;5031834;28;20391;-72
2021/05/14 11:19:50;;;;;;;3.80;0.55;;;23.20;42.30;;;;;;5031904;28;20379;-72
2021/05/14 11:22:36;;;;;;;4.10;0.63;;;23.10;41.70;;;;;;5031634;28;20867;-72
2021/05/14 11:25:13;;;;;;;4.90;0.70;;;23.10;43.60;;;;;;5031503;28;20395;-72
2021/05/14 11:27:38;;;;;;;2.97;0.50;;;23.20;44.10;;;;;;5023977;28;20401;-72
2021/05/14 11:30:10;;;;;;;4.82;0.70;;;23.10;42.30;;;;;;5031707;28;20383;-72
2021/05/14 11:32:40;;;;;;;3.78;0.50;;;23.10;44.90;;;;;;5023175;28;20478;-72
2021/05/14 11:35:15;;;;;;;4.07;0.60;;;23.10;42.80;;;;;;5031675;28;20477;-72
2021/05/14 11:37:56;;;;;;;5.82;0.63;;;23.10;43.60;;;;;;5024342;28;20410;-73
2021/05/14 11:40:26;;;;;;;4.78;0.98;;;23.10;43.30;;;;;;5031463;28;20470;-71
2021/05/14 11:42:59;;;;;;;2.50;0.50;;;23.10;43.60;;;;;;5031014;28;20403;-72
2021/05/14 11:45:44;;;;;;;2.67;0.68;;;23.10;44.30;;;;;;5031290;28;20422;-72
2021/05/14 11:48:10;;;;;;;4.07;0.70;;;23.10;43.60;;;;;;5031458;28;20398;-71
2021/05/14 11:50:38;;;;;;;8.32;0.93;;;23.10;42.00;;;;;;5031320;28;20446;-72
2021/05/14 11:53:06;;;;;;;10.25;1.15;;;23.10;42.40;;;;;;5031449;28;20409;-71
2021/05/14 11:55:36;;;;;;;10.35;1.40;;;23.10;42.50;;;;;;5031436;28;20402;-72
2021/05/14 11:58:03;;;;;;;12.55;1.70;;;23.10;41.60;;;;;;5031761;28;20474;-72
2021/05/14 12:00:43;;;;;;;13.07;1.70;;;23.00;41.50;;;;;;5031275;28;20395;-72
2021/05/14 12:03:10;;;;;;;17.27;2.83;;;23.00;41.20;;;;;;5031343;28;20391;-70
2021/05/14 12:05:37;;;;;;;15.35;2.78;;;23.00;41.20;;;;;;5011266;28;20411;-68
2021/05/14 12:08:23;;;;;;;16.17;3.00;;;23.00;41.10;;;;;;5030585;28;20387;-64
2021/05/14 12:11:00;;;;;;;13.38;2.92;;;23.00;41.10;;;;;;5031043;28;20399;-70
2021/05/14 12:13:34;;;;;;;19.50;2.53;;;23.00;41.00;;;;;;5039040;28;20539;-63
2021/05/14 12:16:06;;;;;;;14.07;2.20;;;23.00;40.80;;;;;;5037990;28;20879;-62
2021/05/14 12:18:34;;;;;;;13.95;2.58;;;23.00;40.80;;;;;;5021549;28;20407;-67
2021/05/14 12:21:02;;;;;;;11.02;2.42;;;22.90;40.80;;;;;;5041290;28;20411;-68
2021/05/14 12:23:28;;;;;;;12.10;2.40;;;23.00;40.80;;;;;;5041085;28;20438;-69
2021/05/14 12:26:00;;;;;;;9.55;2.50;;;23.00;40.80;;;;;;5022940;28;20551;-63
2021/05/14 12:28:38;;;;;;;13.13;2.50;;;23.00;41.40;;;;;;5042317;28;20391;-69
2021/05/14 12:31:07;;;;;;;10.60;2.30;;;23.00;41.10;;;;;;5043713;28;20416;-71
2021/05/14 12:33:46;;;;;;;11.93;2.60;;;23.00;40.30;;;;;;5042123;28;20397;-66
2021/05/14 12:36:12;;;;;;;9.82;2.17;;;23.00;40.50;;;;;;5037422;28;20417;-69
2021/05/14 12:38:42;;;;;;;12.95;2.60;;;23.00;40.50;;;;;;5049010;28;20873;-66
2021/05/14 12:41:24;;;;;;;9.43;2.00;;;23.00;40.40;;;;;;5043277;28;20409;-61
2021/05/14 12:44:14;;;;;;;9.25;2.15;;;23.10;40.50;;;;;;5034317;28;20398;-64
2021/05/14 12:46:59;;;;;;;7.43;1.85;;;23.10;40.50;;;;;;5034036;28;20379;-71
2021/05/14 12:49:26;;;;;;;8.10;2.60;;;23.20;40.40;;;;;;5034201;28;20391;-68
2021/05/14 12:52:02;;;;;;;9.63;2.28;;;23.20;40.40;;;;;;5035038;28;20425;-60
2021/05/14 12:54:28;;;;;;;7.38;1.77;;;23.30;40.00;;;;;;5034915;28;20419;-61
2021/05/14 12:56:54;;;;;;;9.82;2.03;;;23.30;40.00;;;;;;5033699;28;20501;-63
2021/05/14 12:59:20;;;;;;;8.40;1.80;;;23.30;40.20;;;;;;5034259;28;20451;-61
2021/05/14 13:01:50;;;;;;;8.38;1.98;;;23.40;40.20;;;;;;5034296;28;20787;-61